createdAt,value
2022-12-27T00:01:57.320Z,101865.28
2022-12-27T00:04:23.748Z,101875.59
2022-12-27T00:06:50.479Z,101873.09
2022-12-27T00:09:17.001Z,101856.31
2022-12-27T00:11:43.512Z,101865.97
2022-12-27T00:14:11.450Z,101865.00
2022-12-27T00:16:38.850Z,101856.22
2022-12-27T00:19:06.140Z,101860.69
2022-12-27T00:21:33.177Z,101866.94
2022-12-27T00:24:00.570Z,101868.63
2022-12-27T00:26:31.030Z,101864.19
2022-12-27T00:28:58.635Z,101858.97
2022-12-27T00:31:26.956Z,101881.19
2022-12-27T00:33:55.165Z,101887.34
2022-12-27T00:36:24.920Z,101882.03
2022-12-27T00:38:52.738Z,101891.81
2022-12-27T00:41:20.013Z,101888.16
2022-12-27T00:43:47.327Z,101893.47
2022-12-27T00:46:14.104Z,101902.13
2022-12-27T00:48:40.774Z,101905.06
2022-12-27T00:51:19.635Z,101904.94
2022-12-27T00:53:46.630Z,101895.44
2022-12-27T00:56:19.559Z,101895.44
2022-12-27T00:58:47.419Z,101903.25
2022-12-27T01:01:16.856Z,101897.13
2022-12-27T01:03:44.474Z,101914.59
2022-12-27T01:06:14.371Z,101914.69
2022-12-27T01:08:41.085Z,101924.34
2022-12-27T01:11:08.421Z,101920.00
2022-12-27T01:13:35.927Z,101928.66
2022-12-27T01:16:09.527Z,101926.72
2022-12-27T01:18:35.995Z,101930.22
2022-12-27T01:21:10.051Z,101931.75
2022-12-27T01:23:36.782Z,101911.50
2022-12-27T01:26:06.451Z,101935.38
2022-12-27T01:28:33.516Z,101918.75
2022-12-27T01:31:11.220Z,101936.78
2022-12-27T01:33:37.866Z,101938.56
2022-12-27T01:36:12.948Z,101927.28
2022-12-27T01:38:42.657Z,101938.84
2022-12-27T01:41:36.087Z,101941.50
2022-12-27T01:44:34.570Z,101940.13
2022-12-27T01:47:03.292Z,101946.38
2022-12-27T01:49:29.946Z,101945.66
2022-12-27T01:51:56.499Z,101941.22
2022-12-27T01:54:23.972Z,101942.91
2022-12-27T01:56:50.536Z,101956.19
2022-12-27T01:59:17.434Z,101957.00
2022-12-27T02:01:46.296Z,101961.88
2022-12-27T02:04:16.604Z,101959.78
2022-12-27T02:06:43.185Z,101976.69
2022-12-27T02:09:20.808Z,101978.34
2022-12-27T02:11:51.163Z,101977.78
2022-12-27T02:14:34.273Z,101981.41
2022-12-27T02:17:04.231Z,101983.09
2022-12-27T02:19:42.356Z,101990.34
2022-12-27T02:23:09.795Z,101993.84
2022-12-27T02:25:52.032Z,101995.78
2022-12-27T02:28:37.153Z,102002.06
2022-12-27T02:31:11.311Z,102007.22
2022-12-27T02:33:46.785Z,102010.88
2022-12-27T02:36:21.209Z,102015.47
2022-12-27T02:38:52.437Z,102023.41
2022-12-27T02:41:38.288Z,102028.88
2022-12-27T02:44:23.138Z,102022.97
2022-12-27T02:47:09.973Z,102022.84
2022-12-27T02:49:58.356Z,102026.34
2022-12-27T02:53:07.116Z,102023.13
2022-12-27T02:56:26.223Z,102021.28
2022-12-27T02:59:19.973Z,102027.72
2022-12-27T03:02:27.335Z,102031.19
2022-12-27T03:05:18.397Z,102032.88
2022-12-27T03:08:32.157Z,102031.88
2022-12-27T03:11:19.550Z,102035.53
2022-12-27T03:14:14.149Z,102032.88
2022-12-27T03:16:55.699Z,102025.75
2022-12-27T03:20:04.043Z,102031.31
2022-12-27T03:22:51.631Z,102029.25
2022-12-27T03:25:29.821Z,102037.19
2022-12-27T03:28:21.017Z,102037.47
2022-12-27T03:31:12.060Z,102035.78
2022-12-27T03:33:41.863Z,102040.81
2022-12-27T03:36:34.148Z,102033.84
2022-12-27T03:39:13.241Z,102046.28
2022-12-27T03:42:05.039Z,102050.44
2022-12-27T03:44:31.905Z,102047.94
2022-12-27T03:47:01.157Z,102055.06
2022-12-27T03:49:44.009Z,102043.47
2022-12-27T03:52:22.933Z,102048.91
2022-12-27T03:54:51.915Z,102055.06
2022-12-27T03:57:21.496Z,102056.75
2022-12-27T03:59:48.033Z,102049.06
2022-12-27T04:02:14.973Z,102050.72
2022-12-27T04:04:41.681Z,102045.56
2022-12-27T04:07:08.241Z,102048.34
2022-12-27T04:09:53.361Z,102056.16
2022-12-27T04:12:38.318Z,102052.78
2022-12-27T04:15:23.652Z,102061.47
2022-12-27T04:18:08.618Z,102060.75
2022-12-27T04:20:53.418Z,102047.75
2022-12-27T04:23:38.388Z,102053.50
2022-12-27T04:26:23.722Z,102045.81
2022-12-27T04:29:08.549Z,102044.84
2022-12-27T04:31:53.550Z,102058.38
2022-12-27T04:34:38.786Z,102052.22
2022-12-27T04:37:05.678Z,102053.06
2022-12-27T04:39:32.431Z,102051.25
2022-12-27T04:42:17.352Z,102067.03
2022-12-27T04:45:02.303Z,102064.88
2022-12-27T04:47:48.199Z,102071.75
2022-12-27T04:50:45.345Z,102084.03
2022-12-27T04:53:35.889Z,102078.72
2022-12-27T04:56:02.825Z,102084.75
2022-12-27T04:58:29.541Z,102086.56
2022-12-27T05:01:19.802Z,102080.28
2022-12-27T05:03:48.603Z,102077.66
2022-12-27T05:06:15.416Z,102071.50
2022-12-27T05:09:01.020Z,102069.81
2022-12-27T05:11:46.288Z,102077.19
2022-12-27T05:14:15.083Z,102075.63
2022-12-27T05:16:43.565Z,102070.31
2022-12-27T05:19:12.171Z,102077.56
2022-12-27T05:22:03.807Z,102100.22
2022-12-27T05:24:50.631Z,102092.53
2022-12-27T05:27:17.814Z,102104.06
2022-12-27T05:29:45.488Z,102106.03
2022-12-27T05:32:13.620Z,102107.00
2022-12-27T05:34:40.837Z,102106.28
2022-12-27T05:37:07.688Z,102111.47
2022-12-27T05:39:34.165Z,102105.00
2022-12-27T05:42:00.661Z,102111.03
2022-12-27T05:44:27.154Z,102109.19
2022-12-27T05:46:54.900Z,102120.38
2022-12-27T05:49:21.505Z,102105.13
2022-12-27T05:51:47.990Z,102113.78
2022-12-27T05:54:14.522Z,102111.25
2022-12-27T05:56:41.264Z,102100.06
2022-12-27T05:59:08.189Z,102107.19
2022-12-27T06:01:35.007Z,102110.66
2022-12-27T06:04:01.609Z,102109.97
2022-12-27T06:06:28.943Z,102111.66
2022-12-27T06:08:55.503Z,102115.75
2022-12-27T06:11:22.113Z,102105.03
2022-12-27T06:13:53.799Z,102129.00
2022-12-27T06:16:22.329Z,102138.63
2022-12-27T06:18:49.393Z,102141.00
2022-12-27T06:21:19.174Z,102142.25
2022-12-27T06:23:46.419Z,102139.47
2022-12-27T06:26:16.525Z,102145.59
2022-12-27T06:28:43.108Z,102154.53
2022-12-27T06:31:09.668Z,102145.03
2022-12-27T06:33:36.289Z,102158.84
2022-12-27T06:36:23.732Z,102148.63
2022-12-27T06:38:50.401Z,102158.16
2022-12-27T06:41:18.329Z,102159.81
2022-12-27T06:43:45.922Z,102158.97
2022-12-27T06:46:17.912Z,102147.91
2022-12-27T06:48:45.603Z,102159.09
2022-12-27T06:51:13.626Z,102156.44
2022-12-27T06:53:40.431Z,102160.09
2022-12-27T06:56:09.233Z,102157.31
2022-12-27T06:58:35.892Z,102156.84
2022-12-27T07:01:20.798Z,102161.16
2022-12-27T07:03:52.359Z,102156.13
2022-12-27T07:06:20.001Z,102165.66
2022-12-27T07:08:47.231Z,102157.91
2022-12-27T07:11:14.486Z,102162.16
2022-12-27T07:13:44.243Z,102165.66
2022-12-27T07:16:13.262Z,102165.19
2022-12-27T07:18:40.520Z,102172.88
2022-12-27T07:21:08.872Z,102168.06
2022-12-27T07:23:36.200Z,102170.03
2022-12-27T07:26:08.338Z,102181.31
2022-12-27T07:28:35.099Z,102182.56
2022-12-27T07:31:09.646Z,102181.69
2022-12-27T07:33:36.885Z,102187.84
2022-12-27T07:36:07.364Z,102177.25
2022-12-27T07:38:33.838Z,102180.63
2022-12-27T07:41:01.800Z,102184.94
2022-12-27T07:43:33.875Z,102183.38
2022-12-27T07:46:04.257Z,102183.50
2022-12-27T07:48:30.696Z,102183.63
2022-12-27T07:50:57.172Z,102181.09
2022-12-27T07:53:24.218Z,102187.00
2022-12-27T07:55:51.184Z,102187.72
2022-12-27T07:58:18.241Z,102189.41
2022-12-27T08:00:50.425Z,102173.75
2022-12-27T08:03:17.913Z,102188.44
2022-12-27T08:05:49.632Z,102185.19
2022-12-27T08:08:18.073Z,102194.81
2022-12-27T08:10:44.597Z,102189.13
2022-12-27T08:13:11.330Z,102194.69
2022-12-27T08:15:39.967Z,102201.56
2022-12-27T08:18:06.485Z,102203.63
2022-12-27T08:20:33.147Z,102205.16
2022-12-27T08:22:59.891Z,102202.66
2022-12-27T08:25:27.647Z,102199.75
2022-12-27T08:28:05.816Z,102194.69
2022-12-27T08:30:32.476Z,102197.22
2022-12-27T08:33:01.003Z,102199.88
2022-12-27T08:35:51.564Z,102193.16
2022-12-27T08:38:13.887Z,102198.44
2022-12-27T08:40:45.852Z,102196.75
2022-12-27T08:43:13.080Z,102191.72
2022-12-27T08:45:40.274Z,102200.97
2022-12-27T08:48:07.163Z,102206.03
2022-12-27T08:50:34.182Z,102206.03
2022-12-27T08:53:02.732Z,102220.00
2022-12-27T08:55:30.080Z,102221.66
2022-12-27T08:57:58.104Z,102208.41
2022-12-27T09:00:25.806Z,102223.97
2022-12-27T09:02:53.071Z,102222.00
2022-12-27T09:05:20.290Z,102223.84
2022-12-27T09:07:47.201Z,102222.72
2022-12-27T09:10:14.240Z,102215.03
2022-12-27T09:12:40.738Z,102211.41
2022-12-27T09:15:08.323Z,102215.63
2022-12-27T09:17:34.994Z,102213.44
2022-12-27T09:20:02.647Z,102215.97
2022-12-27T09:22:29.317Z,102214.16
2022-12-27T09:24:55.836Z,102225.59
2022-12-27T09:27:22.396Z,102225.34
2022-12-27T09:29:49.081Z,102225.22
2022-12-27T09:32:15.524Z,102222.19
2022-12-27T09:34:41.952Z,102200.91
2022-12-27T09:37:08.385Z,102219.53
2022-12-27T09:39:34.979Z,102224.13
2022-12-27T09:42:48.471Z,102230.13
2022-12-27T09:45:20.646Z,102231.25
2022-12-27T09:48:31.096Z,102227.75
2022-12-27T09:51:06.423Z,102237.25
2022-12-27T09:53:45.009Z,102241.47
2022-12-27T09:56:14.241Z,102246.66
2022-12-27T09:58:50.181Z,102247.50
2022-12-27T10:01:32.591Z,102249.88
2022-12-27T10:04:00.516Z,102249.63
2022-12-27T10:06:39.363Z,102254.66
2022-12-27T10:09:23.848Z,102246.50
2022-12-27T10:12:05.312Z,102250.69
2022-12-27T10:14:44.595Z,102250.56
2022-12-27T10:17:38.328Z,102253.34
2022-12-27T10:20:23.607Z,102250.94
2022-12-27T10:23:04.324Z,102257.19
2022-12-27T10:25:35.966Z,102252.16
2022-12-27T10:28:14.277Z,102258.78
2022-12-27T10:30:42.098Z,102247.78
2022-12-27T10:33:35.331Z,102239.19
2022-12-27T10:36:09.387Z,102233.63
2022-12-27T10:38:36.164Z,102236.00
2022-12-27T10:41:08.319Z,102228.00
2022-12-27T10:43:42.782Z,102219.56
2022-12-27T10:46:19.335Z,102228.63
2022-12-27T10:51:46.894Z,102223.50
2022-12-27T10:54:16.108Z,102224.84
2022-12-27T10:56:44.332Z,102226.28
2022-12-27T10:59:16.879Z,102225.56
2022-12-27T11:02:15.610Z,102220.69
2022-12-27T11:04:57.980Z,102226.09
2022-12-27T11:07:29.474Z,102232.84
2022-12-27T11:10:08.981Z,102234.78
2022-12-27T11:12:36.236Z,102213.53
2022-12-27T11:15:19.579Z,102208.41
2022-12-27T11:17:47.433Z,102201.00
2022-12-27T11:20:22.225Z,102201.72
2022-12-27T11:22:53.800Z,102199.56
2022-12-27T11:25:21.264Z,102191.56
2022-12-27T11:27:54.669Z,102202.22
2022-12-27T11:30:28.727Z,102202.94
2022-12-27T11:32:56.913Z,102199.09
2022-12-27T11:35:23.864Z,102205.69
2022-12-27T11:37:51.702Z,102196.75
2022-12-27T11:40:27.087Z,102201.22
2022-12-27T11:43:05.352Z,102201.78
2022-12-27T11:45:47.941Z,102209.75
2022-12-27T11:48:20.327Z,102225.94
2022-12-27T11:51:11.601Z,102220.59
2022-12-27T11:54:15.587Z,102217.25
2022-12-27T11:56:50.946Z,102222.84
2022-12-27T11:59:32.399Z,102215.72
2022-12-27T12:02:07.782Z,102217.13
2022-12-27T12:04:42.301Z,102208.72
2022-12-27T12:07:44.893Z,102202.97
2022-12-27T12:10:31.536Z,102200.88
2022-12-27T12:13:48.104Z,102191.47
2022-12-27T12:16:42.366Z,102181.41
2022-12-27T12:19:20.694Z,102176.22
2022-12-27T12:21:53.327Z,102172.72
2022-12-27T12:24:47.553Z,102163.28
2022-12-27T12:27:16.881Z,102159.69
2022-12-27T12:30:00.406Z,102140.94
2022-12-27T12:32:58.379Z,102136.25
2022-12-27T12:35:36.125Z,102138.47
2022-12-27T12:38:21.017Z,102133.44
2022-12-27T12:41:02.438Z,102136.25
2022-12-27T12:43:56.927Z,102122.97
2022-12-27T12:46:29.042Z,102116.69
2022-12-27T12:49:45.226Z,102112.47
2022-12-27T12:52:23.541Z,102104.22
2022-12-27T12:55:38.539Z,102102.97
2022-12-27T12:58:33.485Z,102095.16
2022-12-27T13:01:24.386Z,102087.31
2022-12-27T13:04:10.690Z,102089.13
2022-12-27T13:06:57.141Z,102085.63
2022-12-27T13:09:44.035Z,102078.78
2022-12-27T13:12:37.673Z,102081.16
2022-12-27T13:15:13.333Z,102079.06
2022-12-27T13:18:06.087Z,102066.47
2022-12-27T13:20:55.182Z,102057.38
2022-12-27T13:23:39.647Z,102057.25
2022-12-27T13:26:21.315Z,102056.69
2022-12-27T13:29:06.423Z,102053.88
2022-12-27T13:31:51.847Z,102052.06
2022-12-27T13:34:18.280Z,102042.28
2022-12-27T13:37:14.012Z,102041.44
2022-12-27T13:40:27.833Z,102030.41
2022-12-27T13:43:13.097Z,102032.34
2022-12-27T13:45:57.739Z,102031.25
2022-12-27T13:48:56.561Z,102027.44
2022-12-27T13:51:50.303Z,102025.50
2022-12-27T13:54:58.347Z,102021.84
2022-12-27T13:57:43.323Z,102018.22
2022-12-27T14:00:17.503Z,102009.56
2022-12-27T14:03:02.017Z,102012.78
2022-12-27T14:05:50.088Z,102003.41
2022-12-27T14:08:48.559Z,101998.09
2022-12-27T14:11:54.421Z,101999.06
2022-12-27T14:14:22.248Z,101990.13
2022-12-27T14:17:14.783Z,101997.13
2022-12-27T14:19:50.061Z,101993.47
2022-12-27T14:22:53.987Z,101975.16
2022-12-27T14:25:56.656Z,101983.94
2022-12-27T14:29:00.096Z,101987.75
2022-12-27T14:32:00.685Z,101992.06
2022-12-27T14:34:45.187Z,101996.56
2022-12-27T14:37:17.515Z,101987.75
2022-12-27T14:40:18.042Z,101989.69
2022-12-27T14:43:12.594Z,101981.88
2022-12-27T14:46:01.037Z,101989.13
2022-12-27T14:48:52.265Z,101977.56
2022-12-27T14:51:59.411Z,101980.22
2022-12-27T14:54:17.450Z,101983.81
2022-12-27T14:57:22.329Z,101977.81
2022-12-27T15:00:13.445Z,101980.47
2022-12-27T15:02:49.385Z,101977.91
2022-12-27T15:05:34.592Z,101976.25
2022-12-27T15:08:22.006Z,101970.09
2022-12-27T15:11:08.347Z,101976.53
2022-12-27T15:13:55.922Z,101981.72
2022-12-27T15:16:54.916Z,101986.16
2022-12-27T15:19:58.651Z,101975.69
2022-12-27T15:22:58.077Z,101979.34
2022-12-27T15:25:46.586Z,101980.31
2022-12-27T15:28:31.754Z,101976.13
2022-12-27T15:31:13.454Z,101986.59
2022-12-27T15:33:48.607Z,101984.91
2022-12-27T15:36:17.548Z,101979.59
2022-12-27T15:38:54.435Z,101987.84
2022-12-27T15:41:53.352Z,101979.59
2022-12-27T15:44:28.177Z,101995.53
2022-12-27T15:47:30.227Z,101988.00
2022-12-27T15:50:15.477Z,101993.16
2022-12-27T15:53:29.925Z,101979.31
2022-12-27T15:56:21.834Z,101974.72
2022-12-27T15:59:25.865Z,101979.19
2022-12-27T16:02:22.148Z,101972.19
2022-12-27T16:04:53.697Z,101967.03
2022-12-27T16:07:36.335Z,101953.91
2022-12-27T16:10:30.710Z,101968.41
2022-12-27T16:13:09.298Z,101958.78
2022-12-27T16:15:37.831Z,101963.25
2022-12-27T16:18:04.947Z,101951.38
2022-12-27T16:20:32.882Z,101957.09
2022-12-27T16:23:06.151Z,101942.41
2022-12-27T16:25:41.307Z,101947.31
2022-12-27T16:28:21.689Z,101927.47
2022-12-27T16:30:48.167Z,101934.88
2022-12-27T16:33:27.100Z,101928.84
2022-12-27T16:36:15.029Z,101914.88
2022-12-27T16:38:53.529Z,101907.75
2022-12-27T16:41:50.987Z,101904.53
2022-12-27T16:44:27.511Z,101914.19
2022-12-27T16:47:28.245Z,101896.56
2022-12-27T16:50:44.644Z,101899.22
2022-12-27T16:53:42.015Z,101896.44
2022-12-27T16:56:18.499Z,101897.28
2022-12-27T16:58:45.405Z,101897.13
2022-12-27T17:01:36.863Z,101889.88
2022-12-27T17:04:03.619Z,101894.63
2022-12-27T17:06:33.117Z,101891.53
2022-12-27T17:09:09.163Z,101896.59
2022-12-27T17:11:47.661Z,101883.31
2022-12-27T17:14:19.013Z,101873.09
2022-12-27T17:16:53.449Z,101884.13
2022-12-27T17:19:30.188Z,101883.41
2022-12-27T17:22:06.535Z,101873.22
2022-12-27T17:24:32.995Z,101869.03
2022-12-27T17:27:24.248Z,101868.03
2022-12-27T17:29:59.729Z,101867.22
2022-12-27T17:32:41.277Z,101839.66
2022-12-27T17:35:33.222Z,101835.22
2022-12-27T17:38:24.644Z,101843.19
2022-12-27T17:41:45.095Z,101823.88
2022-12-27T17:44:39.115Z,101816.91
2022-12-27T17:47:17.318Z,101817.56
2022-12-27T17:49:44.359Z,101833.66
2022-12-27T17:52:36.798Z,101832.84
2022-12-27T17:55:35.883Z,101833.50
2022-12-27T17:58:05.830Z,101828.19
2022-12-27T18:00:40.379Z,101820.53
2022-12-27T18:03:10.118Z,101820.53
2022-12-27T18:05:41.640Z,101818.28
2022-12-27T18:08:24.686Z,101812.13
2022-12-27T18:10:51.771Z,101796.19
2022-12-27T18:13:20.663Z,101794.22
2022-12-27T18:15:49.419Z,101777.59
2022-12-27T18:18:34.427Z,101785.44
2022-12-27T18:21:05.733Z,101790.88
2022-12-27T18:23:42.725Z,101776.06
2022-12-27T18:26:14.119Z,101775.22
2022-12-27T18:28:42.748Z,101771.63
2022-12-27T18:31:25.750Z,101761.56
2022-12-27T18:33:58.014Z,101769.09
2022-12-27T18:36:41.326Z,101768.00
2022-12-27T18:39:26.717Z,101759.19
2022-12-27T18:41:55.253Z,101752.22
2022-12-27T18:44:28.364Z,101745.91
2022-12-27T18:46:57.753Z,101749.72
2022-12-27T18:49:27.224Z,101737.16
2022-12-27T18:51:55.065Z,101743.00
2022-12-27T18:54:22.900Z,101748.16
2022-12-27T18:56:54.544Z,101747.47
2022-12-27T18:59:27.975Z,101745.66
2022-12-27T19:01:57.081Z,101736.59
2022-12-27T19:04:29.775Z,101728.19
2022-12-27T19:07:06.880Z,101728.34
2022-12-27T19:09:41.510Z,101710.88
2022-12-27T19:12:22.671Z,101715.91
2022-12-27T19:14:49.634Z,101698.97
2022-12-27T19:17:30.515Z,101699.97
2022-12-27T19:20:07.959Z,101690.91
2022-12-27T19:22:41.308Z,101692.16
2022-12-27T19:25:31.046Z,101685.72
2022-12-27T19:28:01.699Z,101669.81
2022-12-27T19:30:41.344Z,101675.97
2022-12-27T19:33:25.704Z,101675.53
2022-12-27T19:35:53.039Z,101672.19
2022-12-27T19:38:28.867Z,101669.69
2022-12-27T19:41:03.103Z,101658.09
2022-12-27T19:43:38.392Z,101661.56
2022-12-27T19:46:05.267Z,101658.91
2022-12-27T19:48:31.713Z,101654.59
2022-12-27T19:50:59.193Z,101647.75
2022-12-27T19:53:32.437Z,101636.97
2022-12-27T19:56:02.940Z,101626.81
2022-12-27T19:58:31.197Z,101636.72
2022-12-27T20:00:58.399Z,101630.56
2022-12-27T20:03:25.580Z,101621.03
2022-12-27T20:06:12.413Z,101618.13
2022-12-27T20:08:44.684Z,101601.81
2022-12-27T20:11:16.000Z,101603.16
2022-12-27T20:13:43.635Z,101606.81
2022-12-27T20:16:12.190Z,101607.66
2022-12-27T20:18:42.727Z,101601.34
2022-12-27T20:21:17.356Z,101581.81
2022-12-27T20:23:44.179Z,101582.81
2022-12-27T20:26:12.129Z,101588.38
2022-12-27T20:28:38.664Z,101590.19
2022-12-27T20:31:12.179Z,101593.53
2022-12-27T20:33:39.086Z,101582.38
2022-12-27T20:36:06.422Z,101575.91
2022-12-27T20:38:32.992Z,101577.59
2022-12-27T20:41:10.975Z,101572.00
2022-12-27T20:43:38.025Z,101580.97
2022-12-27T20:46:10.239Z,101571.31
2022-12-27T20:48:38.831Z,101553.56
2022-12-27T20:51:07.357Z,101567.84
2022-12-27T20:53:33.905Z,101556.22
2022-12-27T20:56:00.744Z,101546.72
2022-12-27T20:58:27.384Z,101549.25
2022-12-27T21:00:53.929Z,101529.28
2022-12-27T21:03:20.644Z,101528.13
2022-12-27T21:05:47.348Z,101540.00
2022-12-27T21:08:13.791Z,101523.97
2022-12-27T21:10:40.225Z,101508.91
2022-12-27T21:13:07.790Z,101517.25
2022-12-27T21:15:40.447Z,101520.06
2022-12-27T21:18:08.941Z,101503.59
2022-12-27T21:20:35.534Z,101510.25
2022-12-27T21:23:02.019Z,101503.44
2022-12-27T21:25:28.613Z,101501.97
2022-12-27T21:27:55.022Z,101480.66
2022-12-27T21:30:21.530Z,101488.19
2022-12-27T21:32:47.976Z,101497.81
2022-12-27T21:35:14.669Z,101509.13
2022-12-27T21:37:41.080Z,101511.41
2022-12-27T21:40:08.031Z,101523.81
2022-12-27T21:42:34.458Z,101510.72
2022-12-27T21:45:01.944Z,101501.19
2022-12-27T21:47:29.277Z,101494.25
2022-12-27T21:49:56.022Z,101509.47
2022-12-27T21:52:22.527Z,101503.47
2022-12-27T21:54:48.938Z,101494.16
2022-12-27T21:57:15.441Z,101492.78
2022-12-27T21:59:41.834Z,101486.94
2022-12-27T22:02:08.933Z,101472.84
2022-12-27T22:04:35.425Z,101471.16
2022-12-27T22:07:02.003Z,101464.03
2022-12-27T22:09:28.403Z,101465.63
2022-12-27T22:11:54.879Z,101464.19
2022-12-27T22:14:25.396Z,101470.75
2022-12-27T22:16:52.497Z,101448.56
2022-12-27T22:19:18.968Z,101450.38
2022-12-27T22:21:47.447Z,101457.34
2022-12-27T22:24:19.331Z,101450.38
2022-12-27T22:26:48.387Z,101434.47
2022-12-27T22:29:14.896Z,101417.69
2022-12-27T22:31:42.852Z,101436.13
2022-12-27T22:34:09.472Z,101416.19
2022-12-27T22:36:36.516Z,101405.59
2022-12-27T22:39:03.918Z,101403.59
2022-12-27T22:41:33.285Z,101395.13
2022-12-27T22:44:02.212Z,101387.16
2022-12-27T22:46:51.320Z,101381.56
2022-12-27T22:49:17.151Z,101373.91
2022-12-27T22:51:43.877Z,101360.63
2022-12-27T22:54:10.307Z,101350.03
2022-12-27T22:56:39.960Z,101350.69
2022-12-27T22:59:12.179Z,101345.69
2022-12-27T23:01:40.182Z,101349.56
2022-12-27T23:04:08.409Z,101347.22
2022-12-27T23:06:36.794Z,101338.94
2022-12-27T23:09:04.559Z,101336.44
2022-12-27T23:11:34.400Z,101331.84
2022-12-27T23:14:12.443Z,101327.66
2022-12-27T23:16:49.291Z,101316.56
2022-12-27T23:19:18.588Z,101316.72
2022-12-27T23:21:45.556Z,101323.19
2022-12-27T23:24:12.619Z,101308.59
2022-12-27T23:26:39.844Z,101301.66
2022-12-27T23:29:06.792Z,101293.69
2022-12-27T23:31:33.699Z,101272.78
2022-12-27T23:34:00.182Z,101277.09
2022-12-27T23:36:26.726Z,101263.66
2022-12-27T23:38:53.248Z,101250.56
2022-12-27T23:41:22.517Z,101243.44
2022-12-27T23:43:52.620Z,101238.97
2022-12-27T23:46:25.223Z,101235.31
2022-12-27T23:48:51.826Z,101212.56
2022-12-27T23:51:18.689Z,101201.81
2022-12-27T23:53:45.238Z,101199.97
2022-12-27T23:56:17.026Z,101199.19
2022-12-27T23:58:44.889Z,101203.63
